sensor_id;sensor_type;location;lat;lon;timestamp;pressure;altitude;pressure_sealevel;temperature;humidity
45050;BME280;61798;48.048;-1.928;2023-07-30T00:00:36;100832.16;;;13.85;100.00
45050;BME280;61798;48.048;-1.928;2023-07-30T00:02:41;100823.28;;;13.85;100.00
45050;BME280;61798;48.048;-1.928;2023-07-30T00:04:47;100821.19;;;13.80;100.00
45050;BME280;61798;48.048;-1.928;2023-07-30T00:06:53;100802.16;;;13.68;100.00
45050;BME280;61798;48.048;-1.928;2023-07-30T00:08:59;100830.09;;;13.88;100.00
45050;BME280;61798;48.048;-1.928;2023-07-30T00:11:05;100829.47;;;13.79;100.00
45050;BME280;61798;48.048;-1.928;2023-07-30T00:13:11;100793.66;;;13.44;100.00
45050;BME280;61798;48.048;-1.928;2023-07-30T00:15:16;100831.16;;;13.66;100.00
45050;BME280;61798;48.048;-1.928;2023-07-30T00:17:23;100811.69;;;13.64;100.00
45050;BME280;61798;48.048;-1.928;2023-07-30T00:19:28;100835.28;;;13.76;100.00
45050;BME280;61798;48.048;-1.928;2023-07-30T00:21:34;100838.41;;;13.72;100.00
45050;BME280;61798;48.048;-1.928;2023-07-30T00:23:40;100816.69;;;13.60;100.00
45050;BME280;61798;48.048;-1.928;2023-07-30T00:25:46;100830.53;;;13.71;100.00
45050;BME280;61798;48.048;-1.928;2023-07-30T00:27:52;100830.50;;;13.78;100.00
45050;BME280;61798;48.048;-1.928;2023-07-30T00:29:57;100831.97;;;13.53;100.00
45050;BME280;61798;48.048;-1.928;2023-07-30T00:32:04;100835.72;;;13.72;100.00
45050;BME280;61798;48.048;-1.928;2023-07-30T00:34:09;100830.53;;;13.71;100.00
45050;BME280;61798;48.048;-1.928;2023-07-30T00:36:15;100832.81;;;13.67;100.00
45050;BME280;61798;48.048;-1.928;2023-07-30T00:38:21;100823.72;;;13.68;100.00
45050;BME280;61798;48.048;-1.928;2023-07-30T00:40:27;100811.28;;;13.33;100.00
45050;BME280;61798;48.048;-1.928;2023-07-30T00:42:33;100832.41;;;13.77;100.00
45050;BME280;61798;48.048;-1.928;2023-07-30T00:44:39;100837.78;;;13.77;100.00
45050;BME280;61798;48.048;-1.928;2023-07-30T00:46:45;100842.75;;;13.80;100.00
45050;BME280;61798;48.048;-1.928;2023-07-30T00:48:50;100831.97;;;13.73;100.00
45050;BME280;61798;48.048;-1.928;2023-07-30T00:50:56;100845.88;;;13.77;100.00
45050;BME280;61798;48.048;-1.928;2023-07-30T00:53:02;100843.19;;;13.63;100.00
45050;BME280;61798;48.048;-1.928;2023-07-30T00:55:09;100857.66;;;13.56;100.00
45050;BME280;61798;48.048;-1.928;2023-07-30T00:57:16;100865.97;;;13.81;100.00
45050;BME280;61798;48.048;-1.928;2023-07-30T00:59:22;100808.16;;;13.36;100.00
45050;BME280;61798;48.048;-1.928;2023-07-30T01:01:30;100849.81;;;13.68;100.00
45050;BME280;61798;48.048;-1.928;2023-07-30T01:03:39;100832.41;;;13.63;100.00
45050;BME280;61798;48.048;-1.928;2023-07-30T01:05:45;100854.78;;;13.71;100.00
45050;BME280;61798;48.048;-1.928;2023-07-30T01:07:51;100832.38;;;13.50;100.00
45050;BME280;61798;48.048;-1.928;2023-07-30T01:09:57;100845.25;;;13.68;100.00
45050;BME280;61798;48.048;-1.928;2023-07-30T01:12:05;100864.28;;;13.73;100.00
45050;BME280;61798;48.048;-1.928;2023-07-30T01:14:12;100854.75;;;13.57;100.00
45050;BME280;61798;48.048;-1.928;2023-07-30T01:16:20;100832.16;;;13.58;100.00
45050;BME280;61798;48.048;-1.928;2023-07-30T01:18:25;100845.22;;;13.75;100.00
45050;BME280;61798;48.048;-1.928;2023-07-30T01:20:32;100836.34;;;13.61;100.00
45050;BME280;61798;48.048;-1.928;2023-07-30T01:22:37;100862.00;;;13.70;100.00
45050;BME280;61798;48.048;-1.928;2023-07-30T01:24:43;100849.81;;;13.61;100.00
45050;BME280;61798;48.048;-1.928;2023-07-30T01:27:07;100860.56;;;13.68;100.00
45050;BME280;61798;48.048;-1.928;2023-07-30T01:29:22;100852.94;;;13.64;100.00
45050;BME280;61798;48.048;-1.928;2023-07-30T01:31:31;100840.66;;;13.55;100.00
45050;BME280;61798;48.048;-1.928;2023-07-30T01:33:39;100831.81;;;13.61;100.00
45050;BME280;61798;48.048;-1.928;2023-07-30T01:35:46;100823.69;;;13.27;100.00
45050;BME280;61798;48.048;-1.928;2023-07-30T01:37:53;100864.28;;;13.46;100.00
45050;BME280;61798;48.048;-1.928;2023-07-30T01:39:59;100858.25;;;13.58;100.00
45050;BME280;61798;48.048;-1.928;2023-07-30T01:42:05;100865.31;;;13.45;100.00
45050;BME280;61798;48.048;-1.928;2023-07-30T01:44:11;100856.66;;;13.63;100.00
45050;BME280;61798;48.048;-1.928;2023-07-30T01:46:17;100861.19;;;13.70;100.00
45050;BME280;61798;48.048;-1.928;2023-07-30T01:48:23;100830.50;;;13.50;100.00
45050;BME280;61798;48.048;-1.928;2023-07-30T01:50:29;100858.50;;;13.63;100.00
45050;BME280;61798;48.048;-1.928;2023-07-30T01:52:35;100864.31;;;13.67;100.00
45050;BME280;61798;48.048;-1.928;2023-07-30T01:54:40;100862.63;;;13.66;100.00
45050;BME280;61798;48.048;-1.928;2023-07-30T01:56:47;100865.13;;;13.67;100.00
45050;BME280;61798;48.048;-1.928;2023-07-30T01:58:53;100842.13;;;13.37;100.00
45050;BME280;61798;48.048;-1.928;2023-07-30T02:01:00;100860.56;;;13.81;100.00
45050;BME280;61798;48.048;-1.928;2023-07-30T02:03:06;100859.34;;;13.77;100.00
45050;BME280;61798;48.048;-1.928;2023-07-30T02:05:12;100846.66;;;13.50;100.00
45050;BME280;61798;48.048;-1.928;2023-07-30T02:07:18;100835.50;;;13.67;100.00
45050;BME280;61798;48.048;-1.928;2023-07-30T02:09:23;100877.97;;;13.72;100.00
45050;BME280;61798;48.048;-1.928;2023-07-30T02:11:29;100846.06;;;13.62;100.00
45050;BME280;61798;48.048;-1.928;2023-07-30T02:13:35;100846.72;;;13.64;100.00
45050;BME280;61798;48.048;-1.928;2023-07-30T02:15:41;100836.75;;;13.64;100.00
45050;BME280;61798;48.048;-1.928;2023-07-30T02:17:47;100876.09;;;13.79;100.00
45050;BME280;61798;48.048;-1.928;2023-07-30T02:19:53;100865.94;;;13.74;100.00
45050;BME280;61798;48.048;-1.928;2023-07-30T02:21:59;100874.66;;;13.83;100.00
45050;BME280;61798;48.048;-1.928;2023-07-30T02:24:05;100852.88;;;13.78;100.00
45050;BME280;61798;48.048;-1.928;2023-07-30T02:26:15;100836.97;;;13.77;100.00
45050;BME280;61798;48.048;-1.928;2023-07-30T02:28:21;100866.38;;;13.85;100.00
45050;BME280;61798;48.048;-1.928;2023-07-30T02:30:27;100853.94;;;13.77;100.00
45050;BME280;61798;48.048;-1.928;2023-07-30T02:32:33;100872.16;;;13.89;100.00
45050;BME280;61798;48.048;-1.928;2023-07-30T02:34:39;100868.44;;;13.83;100.00
45050;BME280;61798;48.048;-1.928;2023-07-30T02:36:45;100852.28;;;13.76;100.00
45050;BME280;61798;48.048;-1.928;2023-07-30T02:38:51;100870.72;;;13.93;100.00
45050;BME280;61798;48.048;-1.928;2023-07-30T02:40:57;100867.19;;;13.85;100.00
45050;BME280;61798;48.048;-1.928;2023-07-30T02:43:02;100863.28;;;13.81;100.00
45050;BME280;61798;48.048;-1.928;2023-07-30T02:45:08;100874.25;;;13.66;100.00
45050;BME280;61798;48.048;-1.928;2023-07-30T02:47:14;100863.06;;;13.69;100.00
45050;BME280;61798;48.048;-1.928;2023-07-30T02:49:21;100855.19;;;13.81;100.00
45050;BME280;61798;48.048;-1.928;2023-07-30T02:51:26;100858.50;;;13.70;100.00
45050;BME280;61798;48.048;-1.928;2023-07-30T02:53:32;100864.72;;;13.63;100.00
45050;BME280;61798;48.048;-1.928;2023-07-30T02:55:38;100878.16;;;13.91;100.00
45050;BME280;61798;48.048;-1.928;2023-07-30T02:57:44;100880.84;;;13.91;100.00
45050;BME280;61798;48.048;-1.928;2023-07-30T02:59:50;100855.56;;;13.58;100.00
45050;BME280;61798;48.048;-1.928;2023-07-30T03:01:56;100867.63;;;13.69;100.00
45050;BME280;61798;48.048;-1.928;2023-07-30T03:04:01;100860.53;;;13.54;100.00
45050;BME280;61798;48.048;-1.928;2023-07-30T03:06:08;100882.94;;;13.75;100.00
45050;BME280;61798;48.048;-1.928;2023-07-30T03:08:13;100857.25;;;13.45;100.00
45050;BME280;61798;48.048;-1.928;2023-07-30T03:10:19;100876.50;;;13.56;100.00
45050;BME280;61798;48.048;-1.928;2023-07-30T03:12:25;100885.81;;;13.60;100.00
45050;BME280;61798;48.048;-1.928;2023-07-30T03:14:31;100894.53;;;13.62;100.00
45050;BME280;61798;48.048;-1.928;2023-07-30T03:16:37;100879.81;;;13.51;100.00
45050;BME280;61798;48.048;-1.928;2023-07-30T03:18:43;100886.22;;;13.50;100.00
45050;BME280;61798;48.048;-1.928;2023-07-30T03:20:48;100884.16;;;13.38;100.00
45050;BME280;61798;48.048;-1.928;2023-07-30T03:22:54;100895.13;;;13.43;100.00
45050;BME280;61798;48.048;-1.928;2023-07-30T03:25:00;100869.41;;;13.07;100.00
45050;BME280;61798;48.048;-1.928;2023-07-30T03:27:06;100890.75;;;13.15;100.00
45050;BME280;61798;48.048;-1.928;2023-07-30T03:29:12;100909.19;;;13.46;100.00
45050;BME280;61798;48.048;-1.928;2023-07-30T03:31:18;100910.88;;;13.53;100.00
45050;BME280;61798;48.048;-1.928;2023-07-30T03:33:24;100909.47;;;13.64;100.00
45050;BME280;61798;48.048;-1.928;2023-07-30T03:35:29;100883.75;;;13.48;100.00
45050;BME280;61798;48.048;-1.928;2023-07-30T03:37:35;100883.72;;;13.35;100.00
45050;BME280;61798;48.048;-1.928;2023-07-30T03:39:41;100912.31;;;13.42;100.00
45050;BME280;61798;48.048;-1.928;2023-07-30T03:41:47;100872.13;;;13.34;100.00
45050;BME280;61798;48.048;-1.928;2023-07-30T03:43:53;100912.72;;;13.46;100.00
45050;BME280;61798;48.048;-1.928;2023-07-30T03:45:59;100889.75;;;13.37;100.00
45050;BME280;61798;48.048;-1.928;2023-07-30T03:48:05;100916.06;;;13.55;100.00
45050;BME280;61798;48.048;-1.928;2023-07-30T03:50:11;100900.50;;;13.43;100.00
45050;BME280;61798;48.048;-1.928;2023-07-30T03:52:16;100900.72;;;13.35;100.00
45050;BME280;61798;48.048;-1.928;2023-07-30T03:54:23;100923.09;;;13.56;100.00
45050;BME280;61798;48.048;-1.928;2023-07-30T03:56:28;100900.28;;;13.38;100.00
45050;BME280;61798;48.048;-1.928;2023-07-30T03:58:34;100900.31;;;13.45;100.00
45050;BME280;61798;48.048;-1.928;2023-07-30T04:00:41;100927.25;;;13.66;100.00
45050;BME280;61798;48.048;-1.928;2023-07-30T04:02:47;100927.06;;;13.60;100.00
45050;BME280;61798;48.048;-1.928;2023-07-30T04:04:53;100927.06;;;13.60;100.00
45050;BME280;61798;48.048;-1.928;2023-07-30T04:06:59;100927.91;;;13.61;100.00
45050;BME280;61798;48.048;-1.928;2023-07-30T04:09:05;100903.00;;;13.38;100.00
45050;BME280;61798;48.048;-1.928;2023-07-30T04:11:11;100912.53;;;13.48;100.00
45050;BME280;61798;48.048;-1.928;2023-07-30T04:13:17;100931.19;;;13.49;100.00
45050;BME280;61798;48.048;-1.928;2023-07-30T04:15:22;100937.19;;;13.58;100.00
45050;BME280;61798;48.048;-1.928;2023-07-30T04:17:28;100910.47;;;13.57;100.00
45050;BME280;61798;48.048;-1.928;2023-07-30T04:19:34;100919.00;;;13.60;100.00
45050;BME280;61798;48.048;-1.928;2023-07-30T04:21:40;100936.00;;;13.61;100.00
45050;BME280;61798;48.048;-1.928;2023-07-30T04:23:45;100914.19;;;13.49;100.00
45050;BME280;61798;48.048;-1.928;2023-07-30T04:25:51;100929.34;;;13.70;100.00
45050;BME280;61798;48.048;-1.928;2023-07-30T04:27:57;100925.44;;;13.73;100.00
45050;BME280;61798;48.048;-1.928;2023-07-30T04:30:06;100946.97;;;13.80;100.00
45050;BME280;61798;48.048;-1.928;2023-07-30T04:32:12;100939.50;;;13.68;100.00
45050;BME280;61798;48.048;-1.928;2023-07-30T04:34:18;100925.63;;;13.64;100.00
45050;BME280;61798;48.048;-1.928;2023-07-30T04:36:24;100923.91;;;13.50;100.00
45050;BME280;61798;48.048;-1.928;2023-07-30T04:38:30;100948.81;;;13.79;100.00
45050;BME280;61798;48.048;-1.928;2023-07-30T04:40:36;100929.94;;;13.59;100.00
45050;BME280;61798;48.048;-1.928;2023-07-30T04:42:41;100937.66;;;13.69;100.00
45050;BME280;61798;48.048;-1.928;2023-07-30T04:44:47;100933.31;;;13.81;100.00
45050;BME280;61798;48.048;-1.928;2023-07-30T04:46:53;100944.47;;;13.78;100.00
45050;BME280;61798;48.048;-1.928;2023-07-30T04:49:02;100906.72;;;13.44;100.00
45050;BME280;61798;48.048;-1.928;2023-07-30T04:51:08;100946.34;;;13.64;100.00
45050;BME280;61798;48.048;-1.928;2023-07-30T04:53:13;100927.03;;;13.53;100.00
45050;BME280;61798;48.048;-1.928;2023-07-30T04:55:19;100948.63;;;13.60;100.00
45050;BME280;61798;48.048;-1.928;2023-07-30T04:57:25;100953.59;;;13.70;100.00
45050;BME280;61798;48.048;-1.928;2023-07-30T04:59:31;100945.53;;;13.77;100.00
45050;BME280;61798;48.048;-1.928;2023-07-30T05:01:39;100948.41;;;13.82;100.00
45050;BME280;61798;48.048;-1.928;2023-07-30T05:03:45;100952.56;;;13.64;100.00
45050;BME280;61798;48.048;-1.928;2023-07-30T05:05:50;100938.69;;;13.68;100.00
45050;BME280;61798;48.048;-1.928;2023-07-30T05:07:56;100945.53;;;13.77;100.00
45050;BME280;61798;48.048;-1.928;2023-07-30T05:10:02;100922.09;;;13.71;100.00
45050;BME280;61798;48.048;-1.928;2023-07-30T05:12:11;100938.25;;;13.64;100.00
45050;BME280;61798;48.048;-1.928;2023-07-30T05:14:17;100960.44;;;13.73;100.00
45050;BME280;61798;48.048;-1.928;2023-07-30T05:16:23;100960.44;;;13.80;100.00
45050;BME280;61798;48.048;-1.928;2023-07-30T05:18:28;100961.88;;;13.76;100.00
45050;BME280;61798;48.048;-1.928;2023-07-30T05:20:34;100914.38;;;13.54;100.00
45050;BME280;61798;48.048;-1.928;2023-07-30T05:22:40;100957.13;;;13.91;100.00
45050;BME280;61798;48.048;-1.928;2023-07-30T05:24:46;100930.81;;;13.73;100.00
45050;BME280;61798;48.048;-1.928;2023-07-30T05:26:52;100962.09;;;13.81;100.00
45050;BME280;61798;48.048;-1.928;2023-07-30T05:28:58;100931.00;;;13.71;100.00
45050;BME280;61798;48.048;-1.928;2023-07-30T05:31:03;100933.72;;;13.85;100.00
45050;BME280;61798;48.048;-1.928;2023-07-30T05:33:09;100957.13;;;13.84;100.00
45050;BME280;61798;48.048;-1.928;2023-07-30T05:35:15;100971.19;;;13.87;100.00
45050;BME280;61798;48.048;-1.928;2023-07-30T05:37:22;100980.31;;;13.85;100.00
45050;BME280;61798;48.048;-1.928;2023-07-30T05:39:28;100982.81;;;14.01;100.00
45050;BME280;61798;48.048;-1.928;2023-07-30T05:41:34;100972.88;;;14.08;100.00
45050;BME280;61798;48.048;-1.928;2023-07-30T05:43:40;100968.09;;;13.97;100.00
45050;BME280;61798;48.048;-1.928;2023-07-30T05:45:46;100967.06;;;14.11;100.00
45050;BME280;61798;48.048;-1.928;2023-07-30T05:47:51;100950.91;;;14.04;100.00
45050;BME280;61798;48.048;-1.928;2023-07-30T05:49:57;100988.81;;;14.23;100.00
45050;BME280;61798;48.048;-1.928;2023-07-30T05:52:04;100982.38;;;14.31;100.00
45050;BME280;61798;48.048;-1.928;2023-07-30T05:54:10;100967.44;;;14.22;100.00
45050;BME280;61798;48.048;-1.928;2023-07-30T05:56:16;100983.41;;;14.30;100.00
45050;BME280;61798;48.048;-1.928;2023-07-30T05:58:24;100987.97;;;14.36;100.00
45050;BME280;61798;48.048;-1.928;2023-07-30T06:00:29;100960.63;;;14.19;100.00
45050;BME280;61798;48.048;-1.928;2023-07-30T06:02:35;100985.06;;;14.45;100.00
45050;BME280;61798;48.048;-1.928;2023-07-30T06:04:41;100976.53;;;14.41;100.00
45050;BME280;61798;48.048;-1.928;2023-07-30T06:06:47;100978.00;;;14.30;100.00
45050;BME280;61798;48.048;-1.928;2023-07-30T06:08:54;100991.91;;;14.41;100.00
45050;BME280;61798;48.048;-1.928;2023-07-30T06:11:01;100991.91;;;14.34;100.00
45050;BME280;61798;48.048;-1.928;2023-07-30T06:13:08;100958.34;;;14.16;100.00
45050;BME280;61798;48.048;-1.928;2023-07-30T06:15:14;100964.53;;;14.30;100.00
45050;BME280;61798;48.048;-1.928;2023-07-30T06:17:20;100984.22;;;14.44;100.00
45050;BME280;61798;48.048;-1.928;2023-07-30T06:19:26;100997.50;;;14.53;100.00
45050;BME280;61798;48.048;-1.928;2023-07-30T06:21:32;100947.97;;;14.26;100.00
45050;BME280;61798;48.048;-1.928;2023-07-30T06:23:38;101008.25;;;14.59;100.00
45050;BME280;61798;48.048;-1.928;2023-07-30T06:25:44;100979.25;;;14.48;100.00
45050;BME280;61798;48.048;-1.928;2023-07-30T06:27:49;101004.28;;;14.69;100.00
45050;BME280;61798;48.048;-1.928;2023-07-30T06:29:55;100980.69;;;14.51;100.00
45050;BME280;61798;48.048;-1.928;2023-07-30T06:32:01;101000.56;;;14.63;100.00
45050;BME280;61798;48.048;-1.928;2023-07-30T06:34:07;100988.97;;;14.56;100.00
45050;BME280;61798;48.048;-1.928;2023-07-30T06:36:13;100983.97;;;14.66;100.00
45050;BME280;61798;48.048;-1.928;2023-07-30T06:38:18;100959.31;;;14.42;100.00
45050;BME280;61798;48.048;-1.928;2023-07-30T06:40:24;100998.28;;;14.67;100.00
45050;BME280;61798;48.048;-1.928;2023-07-30T06:42:30;100977.75;;;14.59;100.00
45050;BME280;61798;48.048;-1.928;2023-07-30T06:44:36;101000.53;;;14.77;100.00
45050;BME280;61798;48.048;-1.928;2023-07-30T06:46:41;100999.88;;;14.82;100.00
45050;BME280;61798;48.048;-1.928;2023-07-30T06:48:47;100997.22;;;14.75;100.00
45050;BME280;61798;48.048;-1.928;2023-07-30T06:50:53;101006.09;;;14.82;100.00
45050;BME280;61798;48.048;-1.928;2023-07-30T06:52:59;101015.44;;;14.86;100.00
45050;BME280;61798;48.048;-1.928;2023-07-30T06:55:05;100985.00;;;14.65;100.00
45050;BME280;61798;48.048;-1.928;2023-07-30T06:57:11;101014.00;;;14.90;100.00
45050;BME280;61798;48.048;-1.928;2023-07-30T06:59:17;100999.88;;;14.88;100.00
45050;BME280;61798;48.048;-1.928;2023-07-30T07:01:22;100996.78;;;14.85;100.00
45050;BME280;61798;48.048;-1.928;2023-07-30T07:03:28;101020.63;;;14.95;100.00
45050;BME280;61798;48.048;-1.928;2023-07-30T07:05:34;101018.34;;;14.98;100.00
45050;BME280;61798;48.048;-1.928;2023-07-30T07:07:40;101021.22;;;15.04;100.00
45050;BME280;61798;48.048;-1.928;2023-07-30T07:09:46;101012.09;;;15.05;100.00
45050;BME280;61798;48.048;-1.928;2023-07-30T07:11:52;101015.59;;;15.05;100.00
45050;BME280;61798;48.048;-1.928;2023-07-30T07:13:57;101022.44;;;15.15;100.00
45050;BME280;61798;48.048;-1.928;2023-07-30T07:16:03;101015.19;;;15.08;100.00
45050;BME280;61798;48.048;-1.928;2023-07-30T07:18:10;100993.84;;;15.00;100.00
45050;BME280;61798;48.048;-1.928;2023-07-30T07:20:15;101013.25;;;15.22;100.00
45050;BME280;61798;48.048;-1.928;2023-07-30T07:22:21;101021.31;;;15.29;100.00
45050;BME280;61798;48.048;-1.928;2023-07-30T07:24:28;101016.16;;;15.28;100.00
45050;BME280;61798;48.048;-1.928;2023-07-30T07:26:33;100987.72;;;15.18;100.00
45050;BME280;61798;48.048;-1.928;2023-07-30T07:28:39;100991.25;;;15.19;100.00
45050;BME280;61798;48.048;-1.928;2023-07-30T07:30:45;101012.72;;;15.46;100.00
45050;BME280;61798;48.048;-1.928;2023-07-30T07:32:52;100990.56;;;15.30;100.00
45050;BME280;61798;48.048;-1.928;2023-07-30T07:34:59;101013.72;;;15.52;100.00
45050;BME280;61798;48.048;-1.928;2023-07-30T07:37:04;101000.81;;;15.54;100.00
45050;BME280;61798;48.048;-1.928;2023-07-30T07:39:10;101012.16;;;15.70;100.00
45050;BME280;61798;48.048;-1.928;2023-07-30T07:41:17;101012.97;;;15.70;100.00
45050;BME280;61798;48.048;-1.928;2023-07-30T07:43:24;101012.66;;;15.85;100.00
45050;BME280;61798;48.048;-1.928;2023-07-30T07:45:30;101028.97;;;15.72;100.00
45050;BME280;61798;48.048;-1.928;2023-07-30T07:47:35;101027.66;;;15.81;100.00
45050;BME280;61798;48.048;-1.928;2023-07-30T07:49:41;100996.19;;;15.61;100.00
45050;BME280;61798;48.048;-1.928;2023-07-30T07:51:47;101003.19;;;15.76;100.00
45050;BME280;61798;48.048;-1.928;2023-07-30T07:53:53;101029.81;;;15.98;100.00
45050;BME280;61798;48.048;-1.928;2023-07-30T07:55:59;101020.63;;;16.06;100.00
45050;BME280;61798;48.048;-1.928;2023-07-30T07:58:04;101027.81;;;16.19;100.00
45050;BME280;61798;48.048;-1.928;2023-07-30T08:00:10;101010.53;;;15.94;100.00
45050;BME280;61798;48.048;-1.928;2023-07-30T08:02:16;101032.88;;;16.34;100.00
45050;BME280;61798;48.048;-1.928;2023-07-30T08:04:22;101021.44;;;16.32;100.00
45050;BME280;61798;48.048;-1.928;2023-07-30T08:06:28;101028.06;;;16.36;100.00
45050;BME280;61798;48.048;-1.928;2023-07-30T08:08:35;101005.56;;;16.17;100.00
45050;BME280;61798;48.048;-1.928;2023-07-30T08:10:41;101033.06;;;16.58;100.00
45050;BME280;61798;48.048;-1.928;2023-07-30T08:12:49;101017.09;;;16.76;100.00
45050;BME280;61798;48.048;-1.928;2023-07-30T08:14:54;101007.34;;;16.30;100.00
45050;BME280;61798;48.048;-1.928;2023-07-30T08:17:01;101039.22;;;16.47;100.00
45050;BME280;61798;48.048;-1.928;2023-07-30T08:19:07;101002.00;;;16.23;100.00
45050;BME280;61798;48.048;-1.928;2023-07-30T08:21:13;101032.91;;;16.53;100.00
45050;BME280;61798;48.048;-1.928;2023-07-30T08:23:19;101009.91;;;16.44;100.00
45050;BME280;61798;48.048;-1.928;2023-07-30T08:25:25;101000.69;;;16.52;100.00
45050;BME280;61798;48.048;-1.928;2023-07-30T08:27:31;101039.09;;;16.79;100.00
45050;BME280;61798;48.048;-1.928;2023-07-30T08:29:37;101021.66;;;16.75;100.00
45050;BME280;61798;48.048;-1.928;2023-07-30T08:31:42;101043.41;;;16.87;100.00
45050;BME280;61798;48.048;-1.928;2023-07-30T08:33:48;101050.69;;;16.87;100.00
45050;BME280;61798;48.048;-1.928;2023-07-30T08:35:58;101027.91;;;16.76;100.00
45050;BME280;61798;48.048;-1.928;2023-07-30T08:38:04;101043.59;;;16.86;100.00
45050;BME280;61798;48.048;-1.928;2023-07-30T08:40:10;101022.03;;;16.79;100.00
45050;BME280;61798;48.048;-1.928;2023-07-30T08:42:16;101026.63;;;16.78;100.00
45050;BME280;61798;48.048;-1.928;2023-07-30T08:44:22;101043.59;;;16.86;100.00
45050;BME280;61798;48.048;-1.928;2023-07-30T08:46:28;101058.22;;;17.04;100.00
45050;BME280;61798;48.048;-1.928;2023-07-30T08:48:34;101043.75;;;17.10;100.00
45050;BME280;61798;48.048;-1.928;2023-07-30T08:50:40;101028.69;;;17.14;100.00
45050;BME280;61798;48.048;-1.928;2023-07-30T08:52:46;101047.81;;;17.38;100.00
45050;BME280;61798;48.048;-1.928;2023-07-30T08:54:53;101046.97;;;17.38;100.00
45050;BME280;61798;48.048;-1.928;2023-07-30T08:57:01;101049.00;;;17.42;100.00
45050;BME280;61798;48.048;-1.928;2023-07-30T08:59:08;101029.66;;;17.39;100.00
45050;BME280;61798;48.048;-1.928;2023-07-30T09:01:14;101055.63;;;17.47;100.00
45050;BME280;61798;48.048;-1.928;2023-07-30T09:03:24;101051.25;;;17.46;100.00
45050;BME280;61798;48.048;-1.928;2023-07-30T09:05:32;101054.31;;;17.49;100.00
45050;BME280;61798;48.048;-1.928;2023-07-30T09:07:38;101056.72;;;17.58;100.00
45050;BME280;61798;48.048;-1.928;2023-07-30T09:09:45;101053.91;;;17.64;100.00
45050;BME280;61798;48.048;-1.928;2023-07-30T09:11:52;101043.53;;;17.61;100.00
45050;BME280;61798;48.048;-1.928;2023-07-30T09:14:01;101061.34;;;17.69;100.00
45050;BME280;61798;48.048;-1.928;2023-07-30T09:16:11;101053.94;;;17.76;100.00
45050;BME280;61798;48.048;-1.928;2023-07-30T09:18:19;101056.84;;;18.06;100.00
45050;BME280;61798;48.048;-1.928;2023-07-30T09:20:26;101044.69;;;18.08;100.00
45050;BME280;61798;48.048;-1.928;2023-07-30T09:22:33;101050.03;;;18.27;100.00
45050;BME280;61798;48.048;-1.928;2023-07-30T09:24:45;101060.19;;;18.44;100.00
45050;BME280;61798;48.048;-1.928;2023-07-30T09:26:51;101058.31;;;18.45;100.00
45050;BME280;61798;48.048;-1.928;2023-07-30T09:28:56;101057.47;;;18.32;100.00
45050;BME280;61798;48.048;-1.928;2023-07-30T09:31:04;101062.75;;;18.15;100.00
45050;BME280;61798;48.048;-1.928;2023-07-30T09:33:10;101018.13;;;17.86;100.00
45050;BME280;61798;48.048;-1.928;2023-07-30T09:35:17;101058.78;;;18.30;100.00
45050;BME280;61798;48.048;-1.928;2023-07-30T09:37:23;101061.50;;;18.30;100.00
45050;BME280;61798;48.048;-1.928;2023-07-30T09:39:29;101045.22;;;18.30;100.00
45050;BME280;61798;48.048;-1.928;2023-07-30T09:41:35;101043.56;;;18.41;100.00
45050;BME280;61798;48.048;-1.928;2023-07-30T09:43:41;101053.22;;;18.48;100.00
45050;BME280;61798;48.048;-1.928;2023-07-30T09:45:47;101025.75;;;18.45;100.00
45050;BME280;61798;48.048;-1.928;2023-07-30T09:47:54;101029.97;;;18.53;100.00
45050;BME280;61798;48.048;-1.928;2023-07-30T09:50:02;101043.66;;;18.70;100.00
45050;BME280;61798;48.048;-1.928;2023-07-30T09:52:08;101027.25;;;18.65;100.00
45050;BME280;61798;48.048;-1.928;2023-07-30T09:54:14;101023.72;;;18.64;100.00
45050;BME280;61798;48.048;-1.928;2023-07-30T09:56:20;101043.84;;;18.92;100.00
45050;BME280;61798;48.048;-1.928;2023-07-30T09:58:26;101052.88;;;19.22;100.00
45050;BME280;61798;48.048;-1.928;2023-07-30T10:00:32;101046.28;;;19.18;100.00
45050;BME280;61798;48.048;-1.928;2023-07-30T10:02:39;101024.28;;;18.90;100.00
45050;BME280;61798;48.048;-1.928;2023-07-30T10:04:49;101054.75;;;19.22;100.00
45050;BME280;61798;48.048;-1.928;2023-07-30T10:07:06;101068.72;;;19.26;100.00
45050;BME280;61798;48.048;-1.928;2023-07-30T10:09:14;101036.31;;;18.95;100.00
45050;BME280;61798;48.048;-1.928;2023-07-30T10:11:22;101038.72;;;19.08;100.00
45050;BME280;61798;48.048;-1.928;2023-07-30T10:13:29;101066.94;;;19.07;100.00
45050;BME280;61798;48.048;-1.928;2023-07-30T10:15:37;101075.81;;;19.27;100.00
45050;BME280;61798;48.048;-1.928;2023-07-30T10:17:44;101072.84;;;19.04;100.00
45050;BME280;61798;48.048;-1.928;2023-07-30T10:19:50;101081.13;;;19.09;100.00
45050;BME280;61798;48.048;-1.928;2023-07-30T10:24:16;101071.06;;;19.22;100.00
45050;BME280;61798;48.048;-1.928;2023-07-30T10:26:30;101071.44;;;19.26;100.00
45050;BME280;61798;48.048;-1.928;2023-07-30T10:28:37;101049.66;;;19.38;100.00
45050;BME280;61798;48.048;-1.928;2023-07-30T10:30:55;101064.94;;;19.27;100.00
45050;BME280;61798;48.048;-1.928;2023-07-30T10:33:03;101073.94;;;19.44;100.00
45050;BME280;61798;48.048;-1.928;2023-07-30T10:35:41;101072.41;;;19.49;100.00
45050;BME280;61798;48.048;-1.928;2023-07-30T10:37:47;101062.63;;;19.36;100.00
45050;BME280;61798;48.048;-1.928;2023-07-30T10:39:53;101055.41;;;19.41;100.00
45050;BME280;61798;48.048;-1.928;2023-07-30T10:42:00;101063.53;;;19.53;100.00
45050;BME280;61798;48.048;-1.928;2023-07-30T10:44:05;101052.19;;;19.74;100.00
45050;BME280;61798;48.048;-1.928;2023-07-30T10:46:13;101060.59;;;19.72;100.00